Terminal Aerodrome Forecast
Issued by NWS

Home | Current Version | Previous Version | Text Only | Print | Product List | Glossary On
Versions: 1 2 3 4 5 6 7 8 9 10 11 12 13 14 15 16 17 18 19 20 21
000
FTUS43 KDTX 081515 AAB
TAFYIP
TAF AMD
KYIP 081515Z 0815/0912 26015G25KT 6SM -SHSN OVC025
      TEMPO 0815/0817 2SM -SHSN SCT009 OVC018
     FM081700 26015G25KT 5SM -SHSN OVC025
     FM082200 27015G25KT P6SM -SHSN BKN035 OVC080
     FM090200 28013KT P6SM BKN035=

USA.gov is the U.S. government's official web portal to all federal, state and local government web resources and services.